createdAt,value
2018-06-28T00:02:23.290Z,21.90
2018-06-28T00:04:51.635Z,25.47
2018-06-28T00:07:19.963Z,20.43
2018-06-28T00:09:48.341Z,23.17
2018-06-28T00:12:18.309Z,19.97
2018-06-28T00:14:46.653Z,23.73
2018-06-28T00:17:14.991Z,21.70
2018-06-28T00:19:43.298Z,19.83
2018-06-28T00:22:12.010Z,18.77
2018-06-28T00:24:40.324Z,18.70
2018-06-28T00:27:08.638Z,23.40
2018-06-28T00:29:36.976Z,21.07
2018-06-28T00:32:05.848Z,20.13
2018-06-28T00:34:34.167Z,22.97
2018-06-28T00:37:02.630Z,21.50
2018-06-28T00:39:30.936Z,20.57
2018-06-28T00:41:59.266Z,20.40
2018-06-28T00:44:27.614Z,14.53
2018-06-28T00:46:56.282Z,18.97
2018-06-28T00:49:24.613Z,15.17
2018-06-28T00:51:52.963Z,20.83
2018-06-28T00:54:21.604Z,18.47
2018-06-28T00:56:50.187Z,19.47
2018-06-28T00:59:18.516Z,24.47
2018-06-28T01:01:46.812Z,20.97
2018-06-28T01:04:15.121Z,23.77
2018-06-28T01:06:43.499Z,21.27
2018-06-28T01:09:12.829Z,23.80
2018-06-28T01:11:41.499Z,24.87
2018-06-28T01:14:09.901Z,23.50
2018-06-28T01:16:38.408Z,23.20
2018-06-28T01:19:07.422Z,24.23
2018-06-28T01:21:35.757Z,24.80
2018-06-28T01:24:04.362Z,23.90
2018-06-28T01:26:33.046Z,23.83
2018-06-28T01:29:01.571Z,25.23
2018-06-28T01:31:29.896Z,26.03
2018-06-28T01:33:58.212Z,24.30
2018-06-28T01:36:26.893Z,20.67
2018-06-28T01:38:55.326Z,21.93
2018-06-28T01:41:23.970Z,21.60
2018-06-28T01:43:52.274Z,25.27
2018-06-28T01:46:20.609Z,23.53
2018-06-28T01:48:48.895Z,24.97
2018-06-28T01:51:17.235Z,25.33
2018-06-28T01:53:45.519Z,24.20
2018-06-28T01:56:14.203Z,23.93
2018-06-28T01:58:42.774Z,30.70
2018-06-28T02:01:11.120Z,22.30
2018-06-28T02:03:39.776Z,29.90
2018-06-28T02:06:08.090Z,26.87
2018-06-28T02:08:36.451Z,30.97
2018-06-28T02:11:04.774Z,28.07
2018-06-28T02:13:33.107Z,28.13
2018-06-28T02:16:01.444Z,31.60
2018-06-28T02:18:29.783Z,30.00
2018-06-28T02:20:58.163Z,27.67
2018-06-28T02:23:26.524Z,27.67
2018-06-28T02:25:55.187Z,27.93
2018-06-28T02:28:23.521Z,28.83
2018-06-28T02:30:51.883Z,31.33
2018-06-28T02:33:20.502Z,29.27
2018-06-28T02:35:48.827Z,30.70
2018-06-28T02:38:17.162Z,27.03
2018-06-28T02:40:45.842Z,29.87
2018-06-28T02:43:14.146Z,25.60
2018-06-28T02:45:42.487Z,24.87
2018-06-28T02:48:11.036Z,29.07
2018-06-28T02:50:39.363Z,36.03
2018-06-28T02:54:37.144Z,27.07
2018-06-28T02:57:05.818Z,32.13
2018-06-28T02:59:34.175Z,25.40
2018-06-28T03:02:02.556Z,36.83
2018-06-28T03:04:30.859Z,31.83
2018-06-28T03:06:59.215Z,35.77
2018-06-28T03:09:27.463Z,27.37
2018-06-28T03:11:55.786Z,33.50
2018-06-28T03:14:24.115Z,34.93
2018-06-28T03:16:52.469Z,34.87
2018-06-28T03:19:20.764Z,30.07
2018-06-28T03:21:49.091Z,32.17
2018-06-28T03:24:17.647Z,32.67
2018-06-28T03:26:46.038Z,35.60
2018-06-28T03:29:14.520Z,39.97
2018-06-28T03:31:42.819Z,39.30
2018-06-28T03:34:11.182Z,37.77
2018-06-28T03:36:39.769Z,31.60
2018-06-28T03:39:11.020Z,33.70
2018-06-28T03:41:39.609Z,30.00
2018-06-28T03:44:08.239Z,35.83
2018-06-28T03:46:36.573Z,39.60
2018-06-28T03:49:05.251Z,34.63
2018-06-28T03:51:33.586Z,32.53
2018-06-28T03:54:01.911Z,34.70
2018-06-28T03:56:30.268Z,36.47
2018-06-28T03:58:58.628Z,30.50
2018-06-28T04:01:26.910Z,32.03
2018-06-28T04:03:55.323Z,33.63
2018-06-28T04:06:23.688Z,32.03
2018-06-28T04:08:52.568Z,31.77
2018-06-28T04:11:20.923Z,33.13
2018-06-28T04:13:49.246Z,30.87
2018-06-28T04:16:17.690Z,34.30
2018-06-28T04:18:46.070Z,35.27
2018-06-28T04:21:14.656Z,34.67
2018-06-28T04:23:43.013Z,40.73
2018-06-28T04:26:11.595Z,27.50
2018-06-28T04:28:39.943Z,35.57
2018-06-28T04:31:08.005Z,34.93
2018-06-28T04:33:36.344Z,31.73
2018-06-28T04:36:05.066Z,35.10
2018-06-28T04:38:33.396Z,30.73
2018-06-28T04:41:02.155Z,34.37
2018-06-28T04:43:31.315Z,32.70
2018-06-28T04:45:59.665Z,33.27
2018-06-28T04:48:28.019Z,31.30
2018-06-28T04:50:56.376Z,29.80
2018-06-28T04:53:24.723Z,32.17
2018-06-28T04:55:53.092Z,31.63
2018-06-28T04:58:21.409Z,30.13
2018-06-28T05:00:49.745Z,28.87
2018-06-28T05:03:18.087Z,26.83
2018-06-28T05:05:46.406Z,26.37
2018-06-28T05:08:14.762Z,27.47
2018-06-28T05:10:43.077Z,27.23
2018-06-28T05:13:11.411Z,24.43
2018-06-28T05:15:39.742Z,28.67
2018-06-28T05:18:08.092Z,27.33
2018-06-28T05:20:36.452Z,22.60
2018-06-28T05:23:04.849Z,27.97
2018-06-28T05:25:33.326Z,23.77
2018-06-28T05:28:01.678Z,23.67
2018-06-28T05:30:29.728Z,21.17
2018-06-28T05:32:58.084Z,20.13
2018-06-28T05:35:26.464Z,17.97
2018-06-28T05:37:54.815Z,18.43
2018-06-28T05:40:23.250Z,21.37
2018-06-28T05:42:51.567Z,21.07
2018-06-28T05:45:19.858Z,20.97
2018-06-28T05:47:48.450Z,21.47
2018-06-28T05:50:17.684Z,18.98
2018-06-28T05:52:45.931Z,17.98
2018-06-28T05:55:14.770Z,20.00
2018-06-28T05:57:43.790Z,17.27
2018-06-28T06:00:12.661Z,19.90
2018-06-28T06:02:41.487Z,17.87
2018-06-28T06:05:10.069Z,20.43
2018-06-28T06:07:38.951Z,17.20
2018-06-28T06:10:07.803Z,17.40
2018-06-28T06:12:36.677Z,17.37
2018-06-28T06:15:05.550Z,16.48
2018-06-28T06:17:34.390Z,13.75
2018-06-28T06:20:03.360Z,15.13
2018-06-28T06:22:32.205Z,15.60
2018-06-28T06:25:01.404Z,16.05
2018-06-28T06:27:30.330Z,14.53
2018-06-28T06:29:59.261Z,15.38
2018-06-28T06:32:28.431Z,14.25
2018-06-28T06:34:57.294Z,17.02
2018-06-28T06:37:25.841Z,16.60
2018-06-28T06:39:54.656Z,14.05
2018-06-28T06:43:52.838Z,13.98
2018-06-28T06:46:22.029Z,17.10
2018-06-28T06:48:50.959Z,14.93
2018-06-28T06:51:20.323Z,15.03
2018-06-28T06:53:49.211Z,13.78
2018-06-28T06:56:18.062Z,12.53
2018-06-28T06:58:46.861Z,12.98
2018-06-28T07:01:15.728Z,13.48
2018-06-28T07:03:44.286Z,15.53
2018-06-28T07:06:13.565Z,14.10
2018-06-28T07:08:42.604Z,11.25
2018-06-28T07:11:12.127Z,13.03
2018-06-28T07:13:40.987Z,9.53
2018-06-28T07:16:09.929Z,10.93
2018-06-28T07:18:38.849Z,13.58
2018-06-28T07:21:07.786Z,13.85
2018-06-28T07:23:36.915Z,13.43
2018-06-28T07:26:05.968Z,10.63
2018-06-28T07:28:35.104Z,10.93
2018-06-28T07:31:04.158Z,11.38
2018-06-28T07:33:33.292Z,11.60
2018-06-28T07:36:02.204Z,12.35
2018-06-28T07:38:31.094Z,10.63
2018-06-28T07:41:00.017Z,14.75
2018-06-28T07:43:29.111Z,14.07
2018-06-28T07:45:58.053Z,15.78
2018-06-28T07:48:26.991Z,10.30
2018-06-28T07:50:55.871Z,13.58
2018-06-28T07:53:24.759Z,14.53
2018-06-28T07:55:53.636Z,11.20
2018-06-28T07:58:22.709Z,10.32
2018-06-28T08:00:51.757Z,12.00
2018-06-28T08:03:20.096Z,14.37
2018-06-28T08:05:48.960Z,11.00
2018-06-28T08:08:17.839Z,14.45
2018-06-28T08:10:46.729Z,12.15
2018-06-28T08:13:15.660Z,10.70
2018-06-28T08:15:44.587Z,10.35
2018-06-28T08:18:13.406Z,9.48
2018-06-28T08:20:42.344Z,10.48
2018-06-28T08:23:11.234Z,9.88
2018-06-28T08:25:40.144Z,9.05
2018-06-28T08:28:09.430Z,8.75
2018-06-28T08:30:38.370Z,5.92
2018-06-28T08:33:07.311Z,7.37
2018-06-28T08:35:36.257Z,9.28
2018-06-28T08:38:05.217Z,5.47
2018-06-28T08:40:34.193Z,5.70
2018-06-28T08:43:03.486Z,7.97
2018-06-28T08:45:32.806Z,6.40
2018-06-28T08:48:01.783Z,7.85
2018-06-28T08:50:30.774Z,5.37
2018-06-28T08:52:59.769Z,5.40
2018-06-28T08:55:28.702Z,8.43
2018-06-28T08:57:57.698Z,6.20
2018-06-28T09:00:26.730Z,5.80
2018-06-28T09:02:55.675Z,5.95
2018-06-28T09:05:24.219Z,4.63
2018-06-28T09:07:53.126Z,4.42
2018-06-28T09:10:21.982Z,4.53
2018-06-28T09:12:51.076Z,3.80
2018-06-28T09:15:20.024Z,5.53
2018-06-28T09:17:49.048Z,3.58
2018-06-28T09:20:18.340Z,2.98
2018-06-28T09:22:59.749Z,2.77
2018-06-28T09:25:28.748Z,5.47
2018-06-28T09:27:57.615Z,4.17
2018-06-28T09:30:29.818Z,3.70
2018-06-28T09:32:58.718Z,4.72
2018-06-28T09:35:27.659Z,6.72
2018-06-28T09:37:56.603Z,4.10
2018-06-28T09:40:26.699Z,3.27
2018-06-28T09:42:55.947Z,2.50
2018-06-28T09:45:25.601Z,1.87
2018-06-28T09:47:55.265Z,3.95
2018-06-28T09:50:36.509Z,2.87
2018-06-28T09:53:05.420Z,3.98
2018-06-28T09:55:34.268Z,3.65
2018-06-28T09:58:03.403Z,3.22
2018-06-28T10:00:37.710Z,4.33
2018-06-28T10:03:06.431Z,3.27
2018-06-28T10:05:35.380Z,3.42
2018-06-28T10:08:04.344Z,5.08
2018-06-28T10:10:33.196Z,3.00
2018-06-28T10:13:02.414Z,2.90
2018-06-28T10:15:31.311Z,3.05
2018-06-28T10:18:00.302Z,4.25
2018-06-28T10:20:29.833Z,3.95
2018-06-28T10:22:58.784Z,4.12
2018-06-28T10:25:27.722Z,4.55
2018-06-28T10:27:56.647Z,2.62
2018-06-28T10:30:25.270Z,2.67
2018-06-28T10:32:53.959Z,1.73
2018-06-28T10:35:22.682Z,2.67
2018-06-28T10:37:51.797Z,2.92
2018-06-28T10:40:21.114Z,3.05
2018-06-28T10:42:50.018Z,3.55
2018-06-28T10:45:19.352Z,4.47
2018-06-28T10:47:48.298Z,3.65
2018-06-28T10:50:17.219Z,3.12
2018-06-28T10:52:45.858Z,2.23
2018-06-28T10:55:15.073Z,2.95
2018-06-28T10:57:44.343Z,3.05
2018-06-28T11:00:13.567Z,2.95
2018-06-28T11:02:42.737Z,3.92
2018-06-28T11:05:11.345Z,3.37
2018-06-28T11:07:40.230Z,2.95
2018-06-28T11:10:09.473Z,4.15
2018-06-28T11:12:38.712Z,4.15
2018-06-28T11:15:07.612Z,4.53
2018-06-28T11:17:36.263Z,2.93
2018-06-28T11:20:04.905Z,3.37
2018-06-28T11:22:41.464Z,2.40
2018-06-28T11:25:10.097Z,2.83
2018-06-28T11:27:38.939Z,1.93
2018-06-28T11:30:08.071Z,1.43
2018-06-28T11:32:36.742Z,3.17
2018-06-28T11:35:05.419Z,1.67
2018-06-28T11:37:34.958Z,1.30
2018-06-28T11:40:03.659Z,2.87
2018-06-28T11:42:32.266Z,2.23
2018-06-28T11:45:00.852Z,1.33
2018-06-28T11:47:29.775Z,1.23
2018-06-28T11:50:01.428Z,1.30
2018-06-28T11:52:30.056Z,1.80
2018-06-28T11:54:58.833Z,1.70
2018-06-28T11:57:27.441Z,1.60
2018-06-28T11:59:56.069Z,1.20
2018-06-28T12:02:24.659Z,2.07
2018-06-28T12:04:53.318Z,2.23
2018-06-28T12:07:21.954Z,1.60
2018-06-28T12:09:50.530Z,1.83
2018-06-28T12:12:19.432Z,1.97
2018-06-28T12:14:48.035Z,2.50
2018-06-28T12:17:16.653Z,2.10
2018-06-28T12:19:45.269Z,1.10
2018-06-28T12:22:14.141Z,4.10
2018-06-28T12:24:42.710Z,2.47
2018-06-28T12:27:11.294Z,1.30
2018-06-28T12:29:39.880Z,1.67
2018-06-28T12:32:08.490Z,2.40
2018-06-28T12:34:37.098Z,2.57
2018-06-28T12:37:05.921Z,2.73
2018-06-28T12:39:34.498Z,1.43
2018-06-28T12:42:03.339Z,3.63
2018-06-28T12:44:31.702Z,1.80
2018-06-28T12:47:39.184Z,3.13
2018-06-28T12:50:08.052Z,2.20
2018-06-28T12:52:45.174Z,3.13
2018-06-28T12:55:15.366Z,2.90
2018-06-28T12:57:44.145Z,1.53
2018-06-28T13:00:13.315Z,2.27
2018-06-28T13:02:42.419Z,2.17
2018-06-28T13:05:12.426Z,2.23
2018-06-28T13:07:41.101Z,3.37
2018-06-28T13:10:10.286Z,1.67
2018-06-28T13:12:39.047Z,1.40
2018-06-28T13:15:27.479Z,3.27
2018-06-28T13:17:59.265Z,3.33
2018-06-28T13:20:27.916Z,1.97
2018-06-28T13:22:56.700Z,2.47
2018-06-28T13:25:25.977Z,3.77
2018-06-28T13:27:54.551Z,2.40
2018-06-28T13:30:23.284Z,2.40
2018-06-28T13:32:52.413Z,2.87
2018-06-28T13:35:21.190Z,5.20
2018-06-28T13:37:50.058Z,2.53
2018-06-28T13:40:18.676Z,2.83
2018-06-28T13:42:51.382Z,5.47
2018-06-28T13:45:19.919Z,3.00
2018-06-28T13:47:48.782Z,2.97
2018-06-28T13:50:17.659Z,2.50
2018-06-28T13:52:46.268Z,3.83
2018-06-28T13:55:14.887Z,3.50
2018-06-28T13:57:43.737Z,2.60
2018-06-28T14:00:12.690Z,3.60
2018-06-28T14:02:41.251Z,2.30
2018-06-28T14:05:10.301Z,3.73
2018-06-28T14:07:38.924Z,2.93
2018-06-28T14:10:07.713Z,2.43
2018-06-28T14:12:36.314Z,4.30
2018-06-28T14:15:05.472Z,2.83
2018-06-28T14:17:34.777Z,4.37
2018-06-28T14:20:04.737Z,3.07
2018-06-28T14:22:33.346Z,4.83
2018-06-28T14:25:02.983Z,2.87
2018-06-28T14:27:32.200Z,3.93
2018-06-28T14:30:01.188Z,2.63
2018-06-28T14:32:29.913Z,2.87
2018-06-28T14:34:58.608Z,2.63
2018-06-28T14:37:27.263Z,2.67
2018-06-28T14:39:55.899Z,2.13
2018-06-28T14:42:24.504Z,2.13
2018-06-28T14:44:53.179Z,2.50
2018-06-28T14:47:22.000Z,4.23
2018-06-28T14:49:51.098Z,4.37
2018-06-28T14:52:19.684Z,3.37
2018-06-28T14:54:48.318Z,2.53
2018-06-28T14:57:17.317Z,2.73
2018-06-28T14:59:46.006Z,2.70
2018-06-28T15:02:14.686Z,2.60
2018-06-28T15:04:43.919Z,4.57
2018-06-28T15:07:12.502Z,2.37
2018-06-28T15:09:41.238Z,4.87
2018-06-28T15:12:09.750Z,3.23
2018-06-28T15:14:38.373Z,5.33
2018-06-28T15:17:07.108Z,2.80
2018-06-28T15:19:35.858Z,3.57
2018-06-28T15:22:04.289Z,3.00
2018-06-28T15:24:33.002Z,3.00
2018-06-28T15:27:01.739Z,4.20
2018-06-28T15:29:30.464Z,2.60
2018-06-28T15:31:59.103Z,3.20
2018-06-28T15:34:27.750Z,2.60
2018-06-28T15:36:56.721Z,4.90
2018-06-28T15:39:25.602Z,3.53
2018-06-28T15:41:53.968Z,2.27
2018-06-28T15:44:22.540Z,3.57
2018-06-28T15:46:51.586Z,2.93
2018-06-28T15:49:20.165Z,8.40
2018-06-28T15:51:49.155Z,3.80
2018-06-28T15:54:17.739Z,2.70
2018-06-28T15:56:46.095Z,2.40
2018-06-28T15:59:15.029Z,2.77
2018-06-28T16:01:44.114Z,2.83
2018-06-28T16:04:12.421Z,2.63
2018-06-28T16:06:41.080Z,1.80
2018-06-28T16:09:10.626Z,1.90
2018-06-28T16:11:39.549Z,3.37
2018-06-28T16:14:08.230Z,5.13
2018-06-28T16:16:37.203Z,2.10
2018-06-28T16:19:06.781Z,5.43
2018-06-28T16:21:35.402Z,2.70
2018-06-28T16:24:04.102Z,3.13
2018-06-28T16:26:32.737Z,3.67
2018-06-28T16:29:01.728Z,2.90
2018-06-28T16:31:30.614Z,3.63
2018-06-28T16:33:59.283Z,2.60
2018-06-28T16:36:28.403Z,2.03
2018-06-28T16:38:57.010Z,3.00
2018-06-28T16:41:25.675Z,4.40
2018-06-28T16:43:54.261Z,2.97
2018-06-28T16:46:22.996Z,2.20
2018-06-28T16:48:52.029Z,7.50
2018-06-28T16:51:20.690Z,1.97
2018-06-28T16:53:49.628Z,3.03
2018-06-28T16:56:18.275Z,3.73
2018-06-28T16:58:46.990Z,2.23
2018-06-28T17:01:15.878Z,2.33
2018-06-28T17:03:44.464Z,2.27
2018-06-28T17:06:13.177Z,2.50
2018-06-28T17:08:42.070Z,2.87
2018-06-28T17:11:10.741Z,4.27
2018-06-28T17:13:39.375Z,1.70
2018-06-28T17:16:07.949Z,3.70
2018-06-28T17:18:37.823Z,3.17
2018-06-28T17:21:06.504Z,5.77
2018-06-28T17:23:35.139Z,5.37
2018-06-28T17:26:03.933Z,2.80
2018-06-28T17:28:32.992Z,3.17
2018-06-28T17:31:01.654Z,2.63
2018-06-28T17:33:30.040Z,3.13
2018-06-28T17:35:58.668Z,4.80
2018-06-28T17:38:27.382Z,3.73
2018-06-28T17:40:56.060Z,2.50
2018-06-28T17:43:24.696Z,3.57
2018-06-28T17:45:53.790Z,3.58
2018-06-28T17:48:22.395Z,2.23
2018-06-28T17:50:51.315Z,3.40
2018-06-28T17:53:20.241Z,2.98
2018-06-28T17:55:49.121Z,4.25
2018-06-28T17:58:18.288Z,2.62
2018-06-28T18:00:47.160Z,3.15
2018-06-28T18:03:15.553Z,3.27
2018-06-28T18:05:44.490Z,4.62
2018-06-28T18:08:13.436Z,3.05
2018-06-28T18:10:42.329Z,2.67
2018-06-28T18:13:11.281Z,3.58
2018-06-28T18:15:40.194Z,6.03
2018-06-28T18:18:09.326Z,2.40
2018-06-28T18:20:38.243Z,3.35
2018-06-28T18:23:07.167Z,4.65
2018-06-28T18:25:36.408Z,3.25
2018-06-28T18:28:05.563Z,5.25
2018-06-28T18:30:34.547Z,4.47
2018-06-28T18:33:03.514Z,4.65
2018-06-28T18:35:32.692Z,6.72
2018-06-28T18:38:02.475Z,4.87
2018-06-28T18:40:31.655Z,5.87
2018-06-28T18:43:00.681Z,8.83
2018-06-28T18:45:30.024Z,5.00
2018-06-28T18:47:58.977Z,4.33
2018-06-28T18:50:28.004Z,5.62
2018-06-28T18:52:57.123Z,5.03
2018-06-28T18:55:26.052Z,5.80
2018-06-28T18:57:55.016Z,3.67
2018-06-28T19:00:24.012Z,4.85
2018-06-28T19:02:53.704Z,3.70
2018-06-28T19:05:22.734Z,5.67
2018-06-28T19:07:51.827Z,6.55
2018-06-28T19:10:26.533Z,5.60
2018-06-28T19:12:55.543Z,4.58
2018-06-28T19:15:30.054Z,4.47
2018-06-28T19:17:59.030Z,4.08
2018-06-28T19:20:31.143Z,4.53
2018-06-28T19:23:05.481Z,4.25
2018-06-28T19:25:34.434Z,4.17
2018-06-28T19:28:03.573Z,5.10
2018-06-28T19:30:37.883Z,4.83
2018-06-28T19:33:07.218Z,3.15
2018-06-28T19:35:36.490Z,6.30
2018-06-28T19:38:05.962Z,7.47
2018-06-28T19:40:40.322Z,4.40
2018-06-28T19:43:09.934Z,4.58
2018-06-28T19:45:39.038Z,5.00
2018-06-28T19:50:45.903Z,4.58
2018-06-28T19:53:16.648Z,4.95
2018-06-28T19:55:45.889Z,4.67
2018-06-28T19:58:14.934Z,3.80
2018-06-28T20:00:49.343Z,5.22
2018-06-28T20:03:23.141Z,3.67
2018-06-28T20:05:52.404Z,4.92
2018-06-28T20:08:21.414Z,7.47
2018-06-28T20:10:50.481Z,4.33
2018-06-28T20:13:24.810Z,4.50
2018-06-28T20:15:59.526Z,5.28
2018-06-28T20:18:34.441Z,4.20
2018-06-28T20:21:04.252Z,6.15
2018-06-28T20:23:33.829Z,4.65
2018-06-28T20:26:08.098Z,5.12
2018-06-28T20:28:43.206Z,4.70
2018-06-28T20:31:17.643Z,6.20
2018-06-28T20:33:51.941Z,5.20
2018-06-28T20:36:20.814Z,4.37
2018-06-28T20:38:53.098Z,3.47
2018-06-28T20:41:22.088Z,3.00
2018-06-28T20:43:51.197Z,3.85
2018-06-28T20:46:20.182Z,3.20
2018-06-28T20:48:49.393Z,5.12
2018-06-28T20:51:18.299Z,3.95
2018-06-28T20:53:47.293Z,6.08
2018-06-28T20:56:16.175Z,4.00
2018-06-28T20:58:46.670Z,5.20
2018-06-28T21:01:15.711Z,3.90
2018-06-28T21:03:44.681Z,5.47
2018-06-28T21:06:13.532Z,4.03
2018-06-28T21:08:42.462Z,5.83
2018-06-28T21:11:11.380Z,3.17
2018-06-28T21:13:40.288Z,3.37
2018-06-28T21:16:09.503Z,4.80
2018-06-28T21:18:38.378Z,3.33
2018-06-28T21:21:07.959Z,3.37
2018-06-28T21:23:37.020Z,5.67
2018-06-28T21:26:05.859Z,4.47
2018-06-28T21:28:34.137Z,5.47
2018-06-28T21:31:03.327Z,4.45
2018-06-28T21:33:32.186Z,4.08
2018-06-28T21:36:01.039Z,2.87
2018-06-28T21:38:29.900Z,3.75
2018-06-28T21:40:58.763Z,5.50
2018-06-28T21:43:27.924Z,4.92
2018-06-28T21:45:57.317Z,5.03
2018-06-28T21:48:25.604Z,3.53
2018-06-28T21:50:54.441Z,5.05
2018-06-28T21:53:23.302Z,3.42
2018-06-28T21:55:51.573Z,4.80
2018-06-28T21:58:19.842Z,4.53
2018-06-28T22:00:48.123Z,3.73
2018-06-28T22:03:16.967Z,4.50
2018-06-28T22:05:45.633Z,2.77
2018-06-28T22:08:14.111Z,5.60
2018-06-28T22:10:42.513Z,3.47
2018-06-28T22:13:11.117Z,3.57
2018-06-28T22:15:39.594Z,4.57
2018-06-28T22:18:08.311Z,4.77
2018-06-28T22:20:36.636Z,4.33
2018-06-28T22:23:04.978Z,2.73
2018-06-28T22:25:33.225Z,4.07
2018-06-28T22:28:01.867Z,4.47
2018-06-28T22:30:30.186Z,3.87
2018-06-28T22:32:58.447Z,2.40
2018-06-28T22:35:26.761Z,3.83
2018-06-28T22:37:55.637Z,4.93
2018-06-28T22:40:24.073Z,3.53
2018-06-28T22:42:52.428Z,4.93
2018-06-28T22:45:20.708Z,3.00
2018-06-28T22:47:49.329Z,2.90
2018-06-28T22:50:17.618Z,2.77
2018-06-28T22:52:45.914Z,3.10
2018-06-28T22:55:14.193Z,3.30
2018-06-28T22:57:42.554Z,4.00
2018-06-28T23:00:10.825Z,3.93
2018-06-28T23:02:39.615Z,3.33
2018-06-28T23:05:08.162Z,5.20
2018-06-28T23:07:36.463Z,3.07
2018-06-28T23:10:04.748Z,2.77
2018-06-28T23:12:33.041Z,3.40
2018-06-28T23:15:01.319Z,4.53
2018-06-28T23:17:29.730Z,3.10
2018-06-28T23:19:58.175Z,2.93
2018-06-28T23:22:45.193Z,3.90
2018-06-28T23:25:14.840Z,2.73
2018-06-28T23:27:44.217Z,3.80
2018-06-28T23:30:13.017Z,3.90
2018-06-28T23:32:41.492Z,3.57
2018-06-28T23:35:09.858Z,3.37
2018-06-28T23:37:38.123Z,4.63
2018-06-28T23:40:06.597Z,3.17
2018-06-28T23:42:35.531Z,3.17
2018-06-28T23:45:04.158Z,4.90
2018-06-28T23:47:32.420Z,4.13
2018-06-28T23:50:01.028Z,2.97
2018-06-28T23:52:29.252Z,3.90
2018-06-28T23:54:57.512Z,3.73
2018-06-28T23:57:25.798Z,4.03
2018-06-28T23:59:54.060Z,3.77
